createdAt,value
2022-08-14T00:02:03.769Z,44.70
2022-08-14T00:05:11.000Z,46.20
2022-08-14T00:08:14.273Z,45.90
2022-08-14T00:11:18.095Z,45.00
2022-08-14T00:14:20.261Z,45.60
2022-08-14T00:17:24.140Z,45.00
2022-08-14T00:20:36.035Z,46.00
2022-08-14T00:23:43.432Z,46.00
2022-08-14T00:26:56.986Z,46.80
2022-08-14T00:29:59.172Z,45.60
2022-08-14T00:33:15.113Z,45.40
2022-08-14T00:36:38.894Z,45.30
2022-08-14T00:39:41.022Z,45.30
2022-08-14T00:42:56.054Z,45.60
2022-08-14T00:46:01.014Z,45.70
2022-08-14T00:49:03.285Z,45.30
2022-08-14T00:52:07.097Z,45.60
2022-08-14T00:55:09.840Z,45.50
2022-08-14T00:58:16.112Z,47.80
2022-08-14T01:01:18.211Z,47.10
2022-08-14T01:04:37.744Z,47.70
2022-08-14T01:10:58.521Z,47.10
2022-08-14T01:14:01.589Z,47.10
2022-08-14T01:17:08.805Z,47.60
2022-08-14T01:20:27.567Z,48.20
2022-08-14T01:23:41.781Z,48.10
2022-08-14T01:26:50.853Z,49.60
2022-08-14T01:30:01.416Z,48.60
2022-08-14T01:33:06.594Z,50.40
2022-08-14T01:36:23.080Z,51.70
2022-08-14T01:39:26.265Z,50.40
2022-08-14T01:42:31.892Z,50.10
2022-08-14T01:45:40.223Z,51.90
2022-08-14T01:48:43.597Z,50.70
2022-08-14T01:51:45.952Z,48.80
2022-08-14T01:54:58.465Z,50.90
2022-08-14T01:58:19.408Z,50.50
2022-08-14T02:01:22.937Z,51.30
2022-08-14T02:04:55.773Z,52.20
2022-08-14T02:08:09.847Z,50.20
2022-08-14T02:11:12.365Z,51.90
2022-08-14T02:14:16.176Z,52.70
2022-08-14T02:17:34.074Z,51.70
2022-08-14T02:20:36.231Z,51.30
2022-08-14T02:23:39.824Z,52.10
2022-08-14T02:26:58.361Z,51.90
2022-08-14T02:30:07.592Z,51.50
2022-08-14T02:33:11.519Z,51.90
2022-08-14T02:37:06.363Z,50.10
2022-08-14T02:39:42.561Z,51.00
2022-08-14T02:42:54.354Z,51.20
2022-08-14T02:45:59.550Z,51.10
2022-08-14T02:49:06.257Z,51.30
2022-08-14T02:52:26.785Z,50.70
2022-08-14T02:55:31.401Z,50.70
2022-08-14T02:58:42.299Z,51.00
2022-08-14T03:01:50.929Z,51.50
2022-08-14T03:04:58.118Z,51.40
2022-08-14T03:08:15.311Z,51.70
2022-08-14T03:11:20.021Z,51.70
2022-08-14T03:14:22.121Z,52.90
2022-08-14T03:17:25.097Z,52.70
2022-08-14T03:20:28.662Z,53.20
2022-08-14T03:23:31.517Z,53.00
2022-08-14T03:26:33.812Z,53.10
2022-08-14T03:29:35.783Z,53.80
2022-08-14T03:32:42.840Z,54.30
2022-08-14T03:36:00.062Z,54.80
2022-08-14T03:39:21.068Z,53.90
2022-08-14T03:42:39.209Z,54.40
2022-08-14T03:45:47.987Z,54.70
2022-08-14T03:48:54.141Z,55.50
2022-08-14T03:51:57.716Z,54.50
2022-08-14T03:55:05.676Z,55.30
2022-08-14T03:58:10.177Z,56.20
2022-08-14T04:01:16.912Z,56.80
2022-08-14T04:04:19.146Z,57.70
2022-08-14T04:07:22.608Z,57.70
2022-08-14T04:10:26.319Z,58.20
2022-08-14T04:13:36.865Z,58.90
2022-08-14T04:16:41.421Z,59.00
2022-08-14T04:19:47.063Z,59.70
2022-08-14T04:22:50.194Z,60.10
2022-08-14T04:25:56.776Z,60.10
2022-08-14T04:29:09.183Z,61.30
2022-08-14T04:33:00.979Z,60.90
2022-08-14T04:35:52.166Z,61.60
2022-08-14T04:38:59.114Z,62.00
2022-08-14T04:42:01.742Z,61.50
2022-08-14T04:45:03.774Z,62.40
2022-08-14T04:48:10.926Z,62.70
2022-08-14T04:51:17.224Z,62.70
2022-08-14T04:54:19.122Z,61.90
2022-08-14T04:57:21.148Z,63.40
2022-08-14T05:00:24.956Z,63.60
2022-08-14T05:03:28.821Z,62.60
2022-08-14T05:06:37.705Z,62.60
2022-08-14T05:09:43.978Z,62.40
2022-08-14T05:13:11.887Z,62.80
2022-08-14T05:16:12.214Z,62.20
2022-08-14T05:19:26.669Z,62.60
2022-08-14T05:22:29.483Z,62.10
2022-08-14T05:25:34.282Z,62.40
2022-08-14T05:28:36.501Z,62.30
2022-08-14T05:31:40.363Z,62.20
2022-08-14T05:34:45.607Z,62.80
2022-08-14T05:37:47.833Z,62.30
2022-08-14T05:40:51.441Z,61.30
2022-08-14T05:43:53.426Z,60.90
2022-08-14T05:46:55.383Z,61.20
2022-08-14T05:50:00.132Z,61.00
2022-08-14T05:53:02.262Z,59.70
2022-08-14T05:56:04.482Z,59.10
2022-08-14T05:59:07.379Z,59.30
2022-08-14T06:02:10.961Z,58.70
2022-08-14T06:05:13.237Z,58.40
2022-08-14T06:08:31.267Z,58.10
2022-08-14T06:11:38.754Z,56.20
2022-08-14T06:14:40.643Z,55.30
2022-08-14T06:17:58.550Z,54.50
2022-08-14T06:21:05.622Z,53.30
2022-08-14T06:24:18.719Z,53.10
2022-08-14T06:27:21.126Z,51.60
2022-08-14T06:30:42.124Z,51.30
2022-08-14T06:35:04.595Z,49.30
2022-08-14T06:37:16.863Z,48.90
2022-08-14T06:40:27.416Z,47.10
2022-08-14T06:43:30.341Z,46.00
2022-08-14T06:46:37.170Z,45.40
2022-08-14T06:49:44.167Z,45.60
2022-08-14T06:52:50.087Z,44.00
2022-08-14T06:56:00.763Z,43.80
2022-08-14T06:59:05.213Z,42.70
2022-08-14T07:02:13.624Z,42.00
2022-08-14T07:05:23.110Z,41.40
2022-08-14T07:08:29.838Z,41.90
2022-08-14T07:11:33.315Z,40.20
2022-08-14T07:14:38.002Z,40.00
2022-08-14T07:17:52.108Z,39.00
2022-08-14T07:20:55.749Z,38.90
2022-08-14T07:23:59.015Z,40.30
2022-08-14T07:27:01.031Z,39.70
2022-08-14T07:30:06.327Z,39.00
2022-08-14T07:33:13.293Z,37.70
2022-08-14T07:36:26.542Z,38.90
2022-08-14T07:39:34.308Z,36.70
2022-08-14T07:42:36.256Z,37.80
2022-08-14T07:45:38.222Z,37.30
2022-08-14T07:48:41.322Z,37.90
2022-08-14T07:51:43.860Z,36.30
2022-08-14T07:54:45.947Z,36.90
2022-08-14T07:57:48.535Z,35.70
2022-08-14T08:00:56.697Z,35.80
2022-08-14T08:04:03.366Z,36.70
2022-08-14T08:07:05.768Z,34.70
2022-08-14T08:10:17.103Z,34.30
2022-08-14T08:13:34.141Z,34.20
2022-08-14T08:16:41.511Z,35.10
2022-08-14T08:19:46.763Z,34.00
2022-08-14T08:22:55.835Z,34.90
2022-08-14T08:25:58.152Z,33.20
2022-08-14T08:29:00.925Z,32.40
2022-08-14T08:32:05.986Z,31.60
2022-08-14T08:35:18.316Z,32.60
2022-08-14T08:39:17.485Z,30.50
2022-08-14T08:41:49.311Z,31.80
2022-08-14T08:44:55.956Z,29.20
2022-08-14T08:47:57.963Z,29.80
2022-08-14T08:51:02.079Z,30.80
2022-08-14T08:54:14.995Z,30.80
2022-08-14T08:57:21.419Z,29.20
2022-08-14T09:00:25.507Z,30.70
2022-08-14T09:03:30.387Z,30.30
2022-08-14T09:07:09.483Z,28.70
2022-08-14T09:09:58.954Z,28.50
2022-08-14T09:13:01.879Z,28.30
2022-08-14T09:16:19.081Z,27.20
2022-08-14T09:19:22.375Z,27.30
2022-08-14T09:22:35.824Z,27.60
2022-08-14T09:26:00.864Z,28.10
2022-08-14T09:29:02.702Z,26.80
2022-08-14T09:32:10.109Z,27.30
2022-08-14T09:35:34.095Z,26.10
2022-08-14T09:38:54.847Z,26.30
2022-08-14T09:42:17.716Z,26.70
2022-08-14T09:45:52.882Z,26.60
2022-08-14T09:49:03.706Z,26.40
2022-08-14T09:52:33.594Z,25.70
2022-08-14T09:55:42.472Z,24.30
2022-08-14T09:58:46.988Z,25.60
2022-08-14T10:01:53.085Z,25.10
2022-08-14T10:05:10.674Z,26.60
2022-08-14T10:08:26.218Z,25.90
2022-08-14T10:11:35.390Z,25.90
2022-08-14T10:14:37.458Z,25.10
2022-08-14T10:17:40.279Z,24.10
2022-08-14T10:20:53.183Z,25.40
2022-08-14T10:23:55.161Z,24.90
2022-08-14T10:27:01.039Z,23.90
2022-08-14T10:30:03.556Z,23.80
2022-08-14T10:33:07.200Z,24.20
2022-08-14T10:36:09.354Z,23.00
2022-08-14T10:39:31.416Z,23.50
2022-08-14T10:42:39.783Z,24.00
2022-08-14T10:45:59.788Z,24.60
2022-08-14T10:49:26.344Z,24.50
2022-08-14T11:03:12.974Z,23.90
2022-08-14T11:06:21.948Z,24.10
2022-08-14T11:09:31.389Z,24.70
2022-08-14T11:12:44.491Z,25.30
2022-08-14T11:15:49.417Z,24.10
2022-08-14T11:18:55.977Z,24.90
2022-08-14T11:22:06.423Z,24.70
2022-08-14T11:25:12.195Z,25.20
2022-08-14T11:28:18.798Z,25.70
2022-08-14T11:31:22.990Z,25.10
2022-08-14T11:34:32.468Z,24.10
2022-08-14T11:37:40.472Z,23.80
2022-08-14T11:40:43.038Z,24.10
2022-08-14T11:43:56.183Z,24.00
2022-08-14T11:47:01.401Z,23.60
2022-08-14T11:50:36.297Z,24.30
2022-08-14T11:53:42.324Z,24.40
2022-08-14T11:56:44.668Z,24.70
2022-08-14T11:59:46.628Z,24.90
2022-08-14T12:03:03.224Z,25.60
2022-08-14T12:06:28.042Z,25.60
2022-08-14T12:09:36.487Z,24.40
2022-08-14T12:12:39.351Z,25.10
2022-08-14T12:15:46.309Z,25.40
2022-08-14T12:18:48.908Z,23.60
2022-08-14T12:21:51.712Z,24.00
2022-08-14T12:24:53.934Z,24.30
2022-08-14T12:27:59.226Z,23.90
2022-08-14T12:31:15.221Z,24.00
2022-08-14T12:34:24.394Z,24.20
2022-08-14T12:37:33.219Z,23.80
2022-08-14T12:40:52.133Z,23.80
2022-08-14T12:43:57.148Z,23.60
2022-08-14T12:47:13.189Z,24.80
2022-08-14T12:50:15.648Z,22.60
2022-08-14T12:53:19.988Z,24.40
2022-08-14T12:56:33.764Z,23.10
2022-08-14T12:59:43.135Z,22.40
2022-08-14T13:02:48.082Z,22.50
2022-08-14T13:05:57.594Z,23.70
2022-08-14T13:09:00.046Z,24.00
2022-08-14T13:12:31.870Z,23.10
2022-08-14T13:15:28.165Z,24.00
2022-08-14T13:18:32.887Z,25.70
2022-08-14T13:22:04.866Z,24.90
2022-08-14T13:25:05.186Z,22.90
2022-08-14T13:28:11.103Z,23.80
2022-08-14T13:31:17.290Z,23.10
2022-08-14T13:34:21.398Z,23.30
2022-08-14T13:37:23.471Z,22.70
2022-08-14T13:40:26.729Z,23.70
2022-08-14T13:43:36.519Z,23.30
2022-08-14T13:46:38.936Z,23.20
2022-08-14T13:49:56.972Z,23.30
2022-08-14T13:53:03.602Z,23.60
2022-08-14T13:56:06.728Z,22.00
2022-08-14T13:59:20.520Z,24.00
2022-08-14T14:02:45.792Z,22.20
2022-08-14T14:05:54.442Z,22.60
2022-08-14T14:08:59.127Z,22.80
2022-08-14T14:12:01.224Z,23.20
2022-08-14T14:15:09.716Z,23.50
2022-08-14T14:18:29.537Z,22.20
2022-08-14T14:21:37.138Z,22.80
2022-08-14T14:24:39.343Z,22.80
2022-08-14T14:27:41.876Z,23.20
2022-08-14T14:30:53.392Z,22.40
2022-08-14T14:34:07.527Z,23.30
2022-08-14T14:37:15.354Z,23.30
2022-08-14T14:40:52.628Z,24.50
2022-08-14T14:43:41.828Z,22.90
2022-08-14T14:46:47.474Z,23.70
2022-08-14T14:49:55.014Z,26.20
2022-08-14T14:53:00.911Z,23.70
2022-08-14T14:56:50.804Z,24.20
2022-08-14T14:59:37.814Z,30.90
2022-08-14T15:02:47.372Z,32.60
2022-08-14T15:05:51.770Z,31.80
2022-08-14T15:08:56.586Z,33.90
2022-08-14T15:12:01.995Z,35.60
2022-08-14T15:15:18.429Z,40.00
2022-08-14T15:18:36.871Z,46.70
2022-08-14T15:21:42.388Z,40.10
2022-08-14T15:24:44.777Z,45.60
2022-08-14T15:27:50.007Z,38.90
2022-08-14T15:30:57.863Z,43.70
2022-08-14T15:34:44.142Z,37.40
2022-08-14T15:37:24.435Z,36.00
2022-08-14T15:40:40.934Z,32.20
2022-08-14T15:43:43.859Z,34.00
2022-08-14T15:46:47.807Z,32.30
2022-08-14T15:49:53.300Z,32.50
2022-08-14T15:52:58.216Z,34.40
2022-08-14T15:56:00.237Z,31.60
2022-08-14T15:59:02.913Z,30.70
2022-08-14T16:02:05.519Z,30.50
2022-08-14T16:05:10.969Z,29.60
2022-08-14T16:08:28.625Z,30.30
2022-08-14T16:11:33.202Z,27.80
2022-08-14T16:14:35.428Z,29.60
2022-08-14T16:17:44.187Z,29.10
2022-08-14T16:20:47.294Z,27.20
2022-08-14T16:23:50.212Z,27.70
2022-08-14T16:27:00.605Z,30.60
2022-08-14T16:30:05.304Z,29.90
2022-08-14T16:33:07.367Z,27.40
2022-08-14T16:39:40.812Z,27.90
2022-08-14T16:43:03.869Z,29.00
2022-08-14T16:46:07.129Z,28.90
2022-08-14T16:49:10.219Z,27.10
2022-08-14T16:52:25.990Z,25.50
2022-08-14T16:55:53.469Z,26.80
2022-08-14T16:59:06.880Z,26.90
2022-08-14T17:02:10.720Z,25.80
2022-08-14T17:05:18.927Z,25.80
2022-08-14T17:08:32.343Z,25.30
2022-08-14T17:12:28.745Z,25.60
2022-08-14T17:15:34.958Z,26.60
2022-08-14T17:19:03.745Z,25.80
2022-08-14T17:22:10.805Z,25.50
2022-08-14T17:25:36.468Z,26.80
2022-08-14T17:28:52.758Z,28.80
2022-08-14T17:32:01.719Z,28.60
2022-08-14T17:35:06.645Z,27.80
2022-08-14T17:38:33.714Z,28.70
2022-08-14T17:41:43.652Z,27.90
2022-08-14T17:44:46.357Z,29.50
2022-08-14T17:47:49.178Z,28.90
2022-08-14T17:50:59.012Z,30.70
2022-08-14T17:54:04.811Z,32.80
2022-08-14T17:57:22.425Z,32.40
2022-08-14T18:00:25.753Z,33.20
2022-08-14T18:03:51.197Z,34.60
2022-08-14T18:06:58.718Z,35.20
2022-08-14T18:10:52.009Z,37.10
2022-08-14T18:13:51.102Z,37.30
2022-08-14T18:16:57.201Z,37.50
2022-08-14T18:19:59.610Z,37.80
2022-08-14T18:23:01.737Z,38.80
2022-08-14T18:26:36.898Z,39.00
2022-08-14T18:29:42.546Z,39.60
2022-08-14T18:32:55.122Z,39.70
2022-08-14T18:36:48.182Z,40.00
2022-08-14T18:40:02.181Z,40.60
2022-08-14T18:43:03.686Z,39.50
2022-08-14T18:46:06.359Z,38.90
2022-08-14T18:49:28.568Z,38.80
2022-08-14T18:52:35.709Z,38.50
2022-08-14T18:55:52.795Z,38.80
2022-08-14T18:58:57.105Z,38.80
2022-08-14T19:02:30.464Z,37.90
2022-08-14T19:05:47.928Z,38.40
2022-08-14T19:08:52.617Z,38.70
2022-08-14T19:11:54.792Z,38.80
2022-08-14T19:15:10.182Z,39.60
2022-08-14T19:18:26.203Z,41.10
2022-08-14T19:21:41.043Z,38.30
2022-08-14T19:24:44.085Z,41.20
2022-08-14T19:28:31.029Z,39.70
2022-08-14T19:31:41.954Z,39.90
2022-08-14T19:34:47.965Z,40.00
2022-08-14T19:37:54.064Z,39.70
2022-08-14T19:40:58.886Z,38.90
2022-08-14T19:44:31.991Z,39.90
2022-08-14T19:47:49.806Z,39.80
2022-08-14T19:51:01.707Z,40.20
2022-08-14T19:54:04.188Z,40.90
2022-08-14T19:57:19.689Z,40.60
2022-08-14T20:00:29.289Z,39.60
2022-08-14T20:03:59.838Z,40.20
2022-08-14T20:07:04.371Z,39.80
2022-08-14T20:11:04.105Z,40.80
2022-08-14T20:13:47.241Z,40.70
2022-08-14T20:16:52.932Z,40.50
2022-08-14T20:19:56.558Z,41.40
2022-08-14T20:23:11.173Z,42.00
2022-08-14T20:26:31.293Z,41.50
2022-08-14T20:29:38.808Z,42.10
2022-08-14T20:32:53.342Z,41.90
2022-08-14T20:35:56.264Z,42.80
2022-08-14T20:38:58.577Z,43.20
2022-08-14T20:42:13.735Z,43.60
2022-08-14T20:45:24.074Z,43.90
2022-08-14T20:48:52.889Z,43.50
2022-08-14T20:51:58.750Z,43.50
2022-08-14T20:55:22.261Z,43.60
2022-08-14T20:58:44.886Z,44.30
2022-08-14T21:01:59.038Z,44.10
2022-08-14T21:05:05.037Z,44.40
2022-08-14T21:08:25.832Z,45.30
2022-08-14T21:11:30.447Z,44.80
2022-08-14T21:14:34.012Z,45.30
2022-08-14T21:17:37.516Z,45.80
2022-08-14T21:20:41.475Z,46.00
2022-08-14T21:23:54.884Z,45.90
2022-08-14T21:27:12.289Z,46.80
2022-08-14T21:30:22.259Z,46.00
2022-08-14T21:33:44.334Z,46.90
2022-08-14T21:36:48.235Z,46.50
2022-08-14T21:39:56.968Z,46.30
2022-08-14T21:43:00.416Z,46.60
2022-08-14T21:46:02.436Z,47.40
2022-08-14T21:49:17.352Z,46.80
2022-08-14T21:52:50.950Z,47.40
2022-08-14T21:55:44.090Z,47.30
2022-08-14T21:58:54.281Z,47.60
2022-08-14T22:02:03.798Z,47.90
2022-08-14T22:05:06.189Z,47.80
2022-08-14T22:08:12.018Z,48.30
2022-08-14T22:11:14.876Z,48.60
2022-08-14T22:14:26.044Z,48.80
2022-08-14T22:17:32.499Z,49.10
2022-08-14T22:20:36.295Z,49.00
2022-08-14T22:23:40.766Z,49.10
2022-08-14T22:26:44.992Z,49.00
2022-08-14T22:29:47.349Z,49.10
2022-08-14T22:33:00.002Z,49.60
2022-08-14T22:36:05.168Z,49.40
2022-08-14T22:39:10.953Z,49.70
2022-08-14T22:42:21.413Z,49.90
2022-08-14T22:45:25.162Z,50.10
2022-08-14T22:48:39.784Z,50.30
2022-08-14T22:51:48.657Z,50.00
2022-08-14T22:54:52.453Z,50.00
2022-08-14T22:57:55.702Z,50.20
2022-08-14T23:01:00.219Z,50.40
2022-08-14T23:04:02.291Z,50.80
2022-08-14T23:07:07.497Z,51.00
2022-08-14T23:10:33.687Z,50.50
2022-08-14T23:13:39.000Z,51.00
2022-08-14T23:16:42.548Z,50.70
2022-08-14T23:19:46.823Z,50.50
2022-08-14T23:22:53.167Z,50.70
2022-08-14T23:25:59.610Z,51.40
2022-08-14T23:29:18.701Z,51.20
2022-08-14T23:32:20.736Z,51.30
2022-08-14T23:35:25.807Z,51.50
2022-08-14T23:38:30.979Z,51.80
2022-08-14T23:41:46.848Z,51.50
2022-08-14T23:44:54.947Z,51.80
2022-08-14T23:47:59.623Z,51.80
2022-08-14T23:51:04.375Z,51.70
2022-08-14T23:54:49.444Z,52.30
2022-08-14T23:57:30.642Z,51.70
